createdAt,value
2023-04-26T00:00:48.229Z,70.22
2023-04-26T00:03:13.361Z,70.48
2023-04-26T00:05:38.194Z,70.43
2023-04-26T00:08:01.855Z,70.64
2023-04-26T00:10:26.838Z,70.00
2023-04-26T00:12:50.533Z,69.58
2023-04-26T00:15:14.136Z,69.55
2023-04-26T00:17:37.915Z,70.09
2023-04-26T00:20:01.568Z,69.71
2023-04-26T00:22:25.482Z,69.05
2023-04-26T00:24:49.083Z,69.90
2023-04-26T00:27:13.960Z,70.60
2023-04-26T00:29:38.318Z,71.24
2023-04-26T00:32:01.899Z,70.99
2023-04-26T00:34:25.538Z,71.81
2023-04-26T00:36:49.193Z,71.24
2023-04-26T00:39:12.919Z,71.22
2023-04-26T00:41:36.705Z,71.80
2023-04-26T00:44:01.672Z,72.00
2023-04-26T00:46:25.434Z,72.37
2023-04-26T00:48:49.310Z,72.25
2023-04-26T00:51:14.164Z,73.12
2023-04-26T00:53:38.263Z,74.39
2023-04-26T00:56:02.057Z,74.44
2023-04-26T00:58:26.850Z,74.60
2023-04-26T01:00:51.831Z,74.13
2023-04-26T01:03:15.711Z,74.55
2023-04-26T01:05:39.826Z,74.56
2023-04-26T01:08:04.826Z,74.29
2023-04-26T01:10:29.890Z,73.97
2023-04-26T01:12:54.684Z,73.37
2023-04-26T01:15:18.236Z,73.97
2023-04-26T01:17:44.439Z,74.94
2023-04-26T01:20:12.097Z,74.45
2023-04-26T01:22:37.433Z,73.49
2023-04-26T01:25:03.694Z,74.06
2023-04-26T01:27:29.740Z,74.95
2023-04-26T01:29:53.286Z,75.16
2023-04-26T01:32:16.949Z,74.72
2023-04-26T01:34:40.606Z,75.80
2023-04-26T01:37:04.246Z,75.85
2023-04-26T01:39:29.203Z,75.58
2023-04-26T01:41:52.985Z,75.74
2023-04-26T01:44:16.739Z,75.80
2023-04-26T01:46:40.572Z,76.52
2023-04-26T01:49:04.296Z,76.46
2023-04-26T01:51:28.089Z,76.80
2023-04-26T01:53:51.699Z,77.03
2023-04-26T01:56:18.224Z,76.53
2023-04-26T01:58:41.776Z,75.73
2023-04-26T02:01:08.571Z,76.25
2023-04-26T02:03:33.836Z,76.15
2023-04-26T02:05:57.589Z,77.15
2023-04-26T02:08:21.174Z,76.36
2023-04-26T02:10:44.794Z,78.78
2023-04-26T02:13:10.887Z,77.71
2023-04-26T02:15:34.471Z,76.99
2023-04-26T02:17:58.093Z,76.97
2023-04-26T02:20:22.219Z,77.26
2023-04-26T02:22:46.076Z,77.65
2023-04-26T02:25:12.463Z,78.10
2023-04-26T02:27:36.006Z,78.51
2023-04-26T02:30:01.348Z,78.72
2023-04-26T02:32:25.544Z,78.60
2023-04-26T02:34:49.682Z,78.19
2023-04-26T02:37:13.260Z,78.56
2023-04-26T02:39:36.896Z,78.96
2023-04-26T02:42:00.602Z,78.30
2023-04-26T02:44:24.373Z,78.69
2023-04-26T02:46:49.387Z,79.40
2023-04-26T02:49:13.030Z,79.04
2023-04-26T02:51:36.618Z,79.16
2023-04-26T02:54:00.234Z,79.68
2023-04-26T02:56:23.816Z,79.06
2023-04-26T02:58:47.964Z,79.29
2023-04-26T03:01:13.876Z,79.09
2023-04-26T03:03:40.522Z,79.29
2023-04-26T03:06:04.251Z,79.68
2023-04-26T03:08:27.940Z,80.16
2023-04-26T03:10:51.492Z,80.42
2023-04-26T03:13:15.257Z,79.74
2023-04-26T03:15:38.999Z,80.20
2023-04-26T03:18:02.679Z,80.04
2023-04-26T03:20:27.779Z,80.25
2023-04-26T03:22:51.783Z,80.34
2023-04-26T03:25:16.253Z,79.87
2023-04-26T03:27:40.193Z,80.40
2023-04-26T03:30:04.433Z,80.43
2023-04-26T03:32:29.206Z,80.40
2023-04-26T03:34:52.779Z,80.45
2023-04-26T03:37:17.819Z,80.94
2023-04-26T03:39:46.156Z,81.57
2023-04-26T03:42:10.628Z,81.80
2023-04-26T03:44:34.344Z,81.75
2023-04-26T03:46:57.938Z,81.08
2023-04-26T03:49:21.551Z,82.16
2023-04-26T03:51:45.138Z,81.25
2023-04-26T03:54:10.062Z,82.01
2023-04-26T03:56:33.651Z,81.04
2023-04-26T03:58:57.815Z,81.54
2023-04-26T04:01:23.807Z,82.04
2023-04-26T04:03:48.371Z,81.67
2023-04-26T04:06:12.619Z,81.21
2023-04-26T04:08:36.267Z,81.33
2023-04-26T04:11:01.709Z,81.38
2023-04-26T04:13:25.891Z,82.34
2023-04-26T04:15:49.577Z,82.38
2023-04-26T04:18:13.476Z,81.78
2023-04-26T04:20:37.437Z,80.92
2023-04-26T04:23:02.256Z,82.18
2023-04-26T04:25:26.450Z,81.48
2023-04-26T04:27:53.367Z,81.10
2023-04-26T04:30:17.440Z,81.27
2023-04-26T04:32:44.459Z,81.23
2023-04-26T04:35:09.571Z,80.57
2023-04-26T04:37:33.664Z,81.21
2023-04-26T04:39:57.719Z,81.87
2023-04-26T04:42:21.580Z,80.87
2023-04-26T04:44:46.960Z,80.75
2023-04-26T04:47:10.600Z,80.88
2023-04-26T04:49:34.492Z,81.26
2023-04-26T04:51:58.331Z,81.57
2023-04-26T04:54:22.270Z,80.09
2023-04-26T04:56:47.519Z,81.24
2023-04-26T04:59:13.312Z,81.21
2023-04-26T05:01:39.013Z,80.44
2023-04-26T05:04:08.053Z,80.62
2023-04-26T05:06:33.255Z,79.57
2023-04-26T05:08:57.534Z,79.49
2023-04-26T05:11:21.488Z,79.89
2023-04-26T05:13:45.252Z,79.41
2023-04-26T05:16:09.256Z,79.09
2023-04-26T05:18:35.549Z,78.27
2023-04-26T05:20:59.581Z,78.91
2023-04-26T05:23:23.865Z,77.96
2023-04-26T05:25:47.396Z,78.28
2023-04-26T05:28:34.359Z,77.42
2023-04-26T05:31:20.155Z,77.66
2023-04-26T05:33:58.268Z,78.24
2023-04-26T05:36:29.986Z,77.91
2023-04-26T05:38:54.487Z,76.85
2023-04-26T05:41:18.061Z,76.13
2023-04-26T05:43:41.758Z,75.50
2023-04-26T05:46:05.412Z,75.70
2023-04-26T05:48:29.862Z,75.10
2023-04-26T05:50:55.004Z,74.04
2023-04-26T05:53:19.274Z,73.82
2023-04-26T05:55:43.373Z,72.22
2023-04-26T05:58:07.623Z,70.77
2023-04-26T06:00:31.834Z,70.85
2023-04-26T06:02:55.700Z,69.36
2023-04-26T06:05:20.271Z,68.99
2023-04-26T06:07:46.508Z,66.29
2023-04-26T06:10:11.856Z,64.83
2023-04-26T06:12:36.567Z,62.43
2023-04-26T06:15:00.261Z,63.62
2023-04-26T06:17:26.526Z,60.23
2023-04-26T06:19:50.156Z,60.31
2023-04-26T06:22:13.776Z,60.62
2023-04-26T06:24:38.764Z,59.08
2023-04-26T06:27:02.428Z,58.60
2023-04-26T06:29:26.519Z,58.72
2023-04-26T06:31:50.788Z,55.89
2023-04-26T06:34:16.822Z,57.54
2023-04-26T06:36:40.783Z,56.71
2023-04-26T06:39:04.580Z,57.06
2023-04-26T06:41:31.267Z,56.31
2023-04-26T06:43:55.270Z,55.60
2023-04-26T06:46:19.819Z,53.79
2023-04-26T06:48:49.155Z,54.56
2023-04-26T06:51:13.098Z,53.52
2023-04-26T06:53:36.921Z,54.75
2023-04-26T06:56:00.618Z,54.79
2023-04-26T06:58:25.674Z,53.14
2023-04-26T07:00:49.356Z,53.69
2023-04-26T07:03:13.289Z,53.17
2023-04-26T07:05:38.138Z,53.00
2023-04-26T07:08:01.933Z,53.17
2023-04-26T07:10:28.064Z,53.86
2023-04-26T07:12:51.813Z,51.81
2023-04-26T07:15:16.919Z,52.41
2023-04-26T07:17:40.510Z,50.79
2023-04-26T07:20:04.652Z,52.10
2023-04-26T07:22:29.270Z,50.76
2023-04-26T07:24:52.897Z,50.57
2023-04-26T07:27:16.452Z,50.26
2023-04-26T07:29:40.686Z,51.47
2023-04-26T07:32:06.729Z,49.74
2023-04-26T07:34:30.552Z,49.96
2023-04-26T07:36:54.470Z,50.66
2023-04-26T07:39:18.062Z,50.83
2023-04-26T07:41:43.858Z,52.36
2023-04-26T07:44:07.948Z,52.49
2023-04-26T07:46:31.499Z,49.72
2023-04-26T07:48:56.624Z,50.46
2023-04-26T07:51:20.297Z,52.41
2023-04-26T07:53:43.962Z,51.33
2023-04-26T07:56:09.559Z,51.26
2023-04-26T07:58:33.958Z,51.37
2023-04-26T08:00:57.747Z,51.92
2023-04-26T08:03:21.534Z,51.69
2023-04-26T08:05:46.713Z,52.00
2023-04-26T08:08:10.993Z,52.74
2023-04-26T08:10:35.144Z,51.38
2023-04-26T08:13:03.075Z,50.92
2023-04-26T08:15:26.651Z,51.57
2023-04-26T08:17:53.221Z,53.19
2023-04-26T08:20:16.977Z,54.15
2023-04-26T08:22:41.970Z,52.98
2023-04-26T08:25:06.765Z,52.40
2023-04-26T08:27:30.321Z,51.62
2023-04-26T08:29:53.955Z,51.35
2023-04-26T08:32:17.494Z,50.37
2023-04-26T08:34:41.160Z,49.52
2023-04-26T08:37:05.430Z,51.39
2023-04-26T08:39:30.465Z,52.43
2023-04-26T08:41:56.303Z,51.84
2023-04-26T08:44:24.916Z,51.18
2023-04-26T08:46:56.801Z,52.39
2023-04-26T08:49:33.693Z,50.30
2023-04-26T08:51:59.465Z,50.35
2023-04-26T08:54:23.854Z,49.53
2023-04-26T08:56:49.265Z,50.70
2023-04-26T08:59:14.883Z,51.52
2023-04-26T09:01:42.088Z,49.98
2023-04-26T09:04:06.424Z,51.15
2023-04-26T09:06:31.273Z,53.26
2023-04-26T09:08:56.549Z,52.43
2023-04-26T09:11:20.168Z,52.09
2023-04-26T09:13:45.110Z,51.81
2023-04-26T09:16:10.096Z,52.13
2023-04-26T09:18:34.274Z,49.93
2023-04-26T09:21:06.921Z,50.81
2023-04-26T09:23:30.554Z,51.20
2023-04-26T09:25:54.098Z,52.43
2023-04-26T09:28:22.714Z,54.08
2023-04-26T09:30:47.893Z,53.44
2023-04-26T09:33:11.582Z,53.21
2023-04-26T09:35:37.324Z,54.01
2023-04-26T09:38:09.035Z,52.67
2023-04-26T09:40:37.548Z,48.81
2023-04-26T09:43:03.483Z,47.59
2023-04-26T09:45:27.952Z,49.39
2023-04-26T09:47:53.246Z,47.09
2023-04-26T09:50:28.513Z,46.73
2023-04-26T09:52:52.076Z,46.77
2023-04-26T09:55:35.041Z,47.75
2023-04-26T09:58:00.574Z,49.41
2023-04-26T10:00:25.633Z,45.51
2023-04-26T10:02:49.784Z,46.36
2023-04-26T10:05:14.952Z,44.24
2023-04-26T10:07:38.721Z,45.10
2023-04-26T10:10:03.972Z,46.33
2023-04-26T10:12:28.067Z,44.26
2023-04-26T10:14:51.593Z,43.79
2023-04-26T10:17:15.938Z,43.61
2023-04-26T10:19:44.101Z,45.74
2023-04-26T10:22:13.900Z,43.66
2023-04-26T10:24:38.604Z,44.31
2023-04-26T10:27:04.606Z,44.44
2023-04-26T10:30:09.276Z,48.34
2023-04-26T10:32:32.886Z,44.83
2023-04-26T10:35:12.357Z,45.37
2023-04-26T10:37:37.660Z,44.96
2023-04-26T10:40:25.861Z,44.87
2023-04-26T10:42:49.483Z,43.83
2023-04-26T10:45:29.807Z,45.78
2023-04-26T10:48:17.457Z,44.42
2023-04-26T10:51:09.503Z,44.03
2023-04-26T10:54:02.222Z,45.63
2023-04-26T10:56:54.116Z,45.72
2023-04-26T10:59:39.935Z,44.64
2023-04-26T11:02:07.581Z,45.56
2023-04-26T11:04:56.073Z,43.52
2023-04-26T11:07:39.504Z,43.47
2023-04-26T11:10:11.303Z,41.96
2023-04-26T11:12:37.026Z,42.00
2023-04-26T11:15:03.101Z,42.74
2023-04-26T11:17:26.900Z,43.27
2023-04-26T11:19:50.465Z,43.08
2023-04-26T11:22:14.646Z,42.94
2023-04-26T11:24:39.005Z,41.61
2023-04-26T11:27:10.475Z,44.66
2023-04-26T11:29:34.270Z,42.74
2023-04-26T11:32:00.556Z,43.33
2023-04-26T11:34:24.703Z,43.42
2023-04-26T11:36:48.548Z,44.46
2023-04-26T11:39:14.222Z,42.24
2023-04-26T11:41:37.875Z,42.31
2023-04-26T11:44:02.902Z,40.59
2023-04-26T11:46:26.973Z,39.39
2023-04-26T11:48:51.682Z,44.34
2023-04-26T11:51:15.598Z,40.46
2023-04-26T11:53:40.685Z,42.14
2023-04-26T11:56:04.800Z,41.55
2023-04-26T11:58:28.546Z,39.72
2023-04-26T12:01:01.779Z,41.09
2023-04-26T12:03:27.957Z,43.05
2023-04-26T12:05:56.343Z,43.03
2023-04-26T12:08:20.306Z,41.57
2023-04-26T12:10:43.911Z,41.09
2023-04-26T12:13:07.466Z,41.42
2023-04-26T12:15:32.905Z,40.23
2023-04-26T12:18:01.515Z,41.02
2023-04-26T12:20:33.842Z,41.96
2023-04-26T12:23:07.616Z,42.69
2023-04-26T12:25:31.547Z,43.29
2023-04-26T12:27:55.516Z,41.33
2023-04-26T12:30:19.700Z,43.39
2023-04-26T12:33:09.248Z,42.88
2023-04-26T12:35:40.069Z,41.85
2023-04-26T12:38:03.624Z,40.78
2023-04-26T12:40:27.747Z,40.72
2023-04-26T12:42:52.156Z,39.10
2023-04-26T12:45:15.830Z,40.72
2023-04-26T12:47:39.373Z,40.58
2023-04-26T12:50:05.164Z,39.21
2023-04-26T12:52:28.729Z,41.80
2023-04-26T12:54:52.698Z,41.71
2023-04-26T12:57:16.945Z,39.25
2023-04-26T12:59:40.557Z,40.85
2023-04-26T13:02:04.071Z,40.12
2023-04-26T13:04:27.966Z,39.65
2023-04-26T13:06:53.682Z,38.24
2023-04-26T13:09:17.644Z,39.18
2023-04-26T13:11:41.830Z,39.93
2023-04-26T13:14:06.880Z,40.56
2023-04-26T13:16:30.529Z,39.81
2023-04-26T13:18:54.484Z,40.22
2023-04-26T13:21:18.046Z,40.94
2023-04-26T13:23:43.004Z,39.52
2023-04-26T13:26:06.750Z,40.79
2023-04-26T13:28:30.346Z,39.89
2023-04-26T13:30:55.868Z,40.82
2023-04-26T13:33:21.393Z,39.72
2023-04-26T13:35:45.173Z,40.00
2023-04-26T13:38:08.769Z,39.64
2023-04-26T13:40:33.804Z,39.29
2023-04-26T13:42:57.406Z,39.13
2023-04-26T13:45:21.274Z,40.01
2023-04-26T13:47:44.923Z,41.15
2023-04-26T13:50:09.486Z,41.55
2023-04-26T13:52:33.366Z,41.86
2023-04-26T13:54:57.112Z,42.70
2023-04-26T13:57:22.776Z,40.25
2023-04-26T13:59:46.352Z,42.83
2023-04-26T14:02:10.733Z,41.12
2023-04-26T14:04:34.645Z,38.94
2023-04-26T14:06:58.350Z,38.92
2023-04-26T14:09:21.979Z,37.96
2023-04-26T14:11:51.589Z,37.67
2023-04-26T14:14:22.518Z,39.38
2023-04-26T14:16:46.116Z,39.21
2023-04-26T14:19:09.679Z,39.57
2023-04-26T14:21:33.255Z,39.31
2023-04-26T14:23:57.049Z,38.12
2023-04-26T14:26:20.581Z,39.01
2023-04-26T14:28:44.372Z,38.93
2023-04-26T14:31:09.650Z,40.56
2023-04-26T14:33:33.639Z,39.78
2023-04-26T14:35:57.442Z,39.11
2023-04-26T14:38:21.196Z,38.73
2023-04-26T14:40:45.150Z,40.63
2023-04-26T14:43:08.849Z,39.71
2023-04-26T14:45:44.093Z,40.32
2023-04-26T14:48:09.965Z,39.27
2023-04-26T14:50:33.571Z,39.90
2023-04-26T14:52:57.235Z,40.28
2023-04-26T14:55:22.507Z,39.95
2023-04-26T14:57:46.200Z,38.78
2023-04-26T15:00:15.276Z,42.13
2023-04-26T15:02:39.011Z,40.35
2023-04-26T15:05:04.445Z,40.02
2023-04-26T15:07:32.355Z,41.42
2023-04-26T15:09:56.602Z,40.04
2023-04-26T15:12:20.162Z,39.99
2023-04-26T15:14:43.705Z,40.09
2023-04-26T15:17:07.706Z,40.00
2023-04-26T15:19:32.502Z,39.35
2023-04-26T15:21:57.508Z,40.68
2023-04-26T15:24:21.061Z,41.12
2023-04-26T15:26:44.605Z,40.36
2023-04-26T15:29:08.477Z,40.92
2023-04-26T15:31:32.060Z,40.39
2023-04-26T15:33:56.872Z,41.40
2023-04-26T15:36:20.641Z,41.10
2023-04-26T15:38:47.744Z,41.44
2023-04-26T15:41:11.336Z,41.05
2023-04-26T15:43:34.893Z,42.00
2023-04-26T15:45:58.633Z,41.43
2023-04-26T15:48:22.179Z,40.98
2023-04-26T15:50:46.288Z,42.09
2023-04-26T15:53:09.915Z,43.01
2023-04-26T15:55:35.360Z,43.23
2023-04-26T15:57:58.895Z,42.74
2023-04-26T16:00:22.722Z,43.01
2023-04-26T16:02:46.352Z,43.24
2023-04-26T16:05:10.549Z,43.30
2023-04-26T16:07:34.148Z,44.58
2023-04-26T16:09:57.752Z,45.24
2023-04-26T16:12:22.690Z,45.07
2023-04-26T16:14:46.367Z,45.34
2023-04-26T16:17:10.044Z,45.87
2023-04-26T16:19:33.618Z,45.25
2023-04-26T16:21:57.177Z,44.36
2023-04-26T16:24:21.564Z,45.46
2023-04-26T16:26:45.595Z,47.38
2023-04-26T16:29:10.602Z,45.70
2023-04-26T16:31:34.650Z,46.40
2023-04-26T16:33:58.304Z,45.66
2023-04-26T16:36:21.922Z,46.57
2023-04-26T16:38:45.673Z,46.00
2023-04-26T16:41:09.257Z,45.84
2023-04-26T16:43:33.802Z,48.01
2023-04-26T16:46:04.089Z,50.52
2023-04-26T16:48:27.878Z,49.54
2023-04-26T16:50:51.416Z,47.98
2023-04-26T16:53:15.126Z,47.19
2023-04-26T16:55:38.643Z,48.09
2023-04-26T16:58:02.262Z,48.02
2023-04-26T17:00:26.061Z,45.16
2023-04-26T17:02:52.089Z,46.21
2023-04-26T17:05:16.049Z,45.25
2023-04-26T17:07:39.666Z,44.58
2023-04-26T17:10:03.953Z,44.61
2023-04-26T17:12:27.665Z,45.49
2023-04-26T17:14:51.195Z,44.76
2023-04-26T17:17:14.854Z,45.36
2023-04-26T17:19:39.782Z,46.04
2023-04-26T17:22:03.418Z,46.39
2023-04-26T17:24:26.954Z,46.51
2023-04-26T17:26:51.098Z,47.41
2023-04-26T17:29:14.683Z,46.67
2023-04-26T17:31:38.704Z,47.28
2023-04-26T17:34:04.702Z,47.45
2023-04-26T17:36:30.066Z,46.04
2023-04-26T17:38:53.721Z,46.46
2023-04-26T17:41:17.963Z,46.38
2023-04-26T17:43:41.711Z,46.32
2023-04-26T17:46:05.493Z,46.52
2023-04-26T17:48:29.194Z,47.05
2023-04-26T17:50:52.955Z,46.83
2023-04-26T17:53:18.355Z,46.83
2023-04-26T17:55:42.112Z,46.47
2023-04-26T17:58:05.762Z,48.06
2023-04-26T18:00:29.557Z,47.69
2023-04-26T18:02:53.985Z,48.13
2023-04-26T18:05:18.390Z,48.75
2023-04-26T18:07:42.031Z,49.07
2023-04-26T18:10:08.700Z,49.49
2023-04-26T18:12:32.258Z,49.41
2023-04-26T18:14:56.438Z,50.30
2023-04-26T18:17:20.054Z,50.31
2023-04-26T18:19:44.133Z,50.96
2023-04-26T18:22:07.724Z,50.75
2023-04-26T18:24:31.343Z,51.83
2023-04-26T18:26:56.293Z,51.29
2023-04-26T18:29:19.931Z,51.82
2023-04-26T18:31:43.790Z,51.58
2023-04-26T18:34:07.959Z,52.11
2023-04-26T18:36:32.210Z,51.92
2023-04-26T18:38:55.760Z,51.90
2023-04-26T18:41:19.314Z,52.49
2023-04-26T18:43:44.297Z,52.19
2023-04-26T18:46:08.131Z,53.17
2023-04-26T18:48:31.957Z,53.43
2023-04-26T18:50:56.447Z,53.28
2023-04-26T18:53:22.190Z,53.17
2023-04-26T18:55:46.083Z,53.68
2023-04-26T18:58:10.401Z,53.92
2023-04-26T19:00:35.377Z,53.97
2023-04-26T19:02:59.164Z,54.04
2023-04-26T19:05:22.967Z,54.56
2023-04-26T19:07:46.689Z,54.39
2023-04-26T19:10:11.551Z,54.22
2023-04-26T19:12:35.181Z,54.73
2023-04-26T19:14:58.700Z,54.39
2023-04-26T19:17:24.214Z,54.88
2023-04-26T19:19:47.905Z,55.52
2023-04-26T19:22:11.742Z,55.44
2023-04-26T19:24:35.275Z,55.09
2023-04-26T19:26:58.973Z,55.93
2023-04-26T19:29:22.501Z,55.13
2023-04-26T19:31:46.217Z,55.96
2023-04-26T19:34:12.697Z,55.73
2023-04-26T19:36:37.174Z,55.80
2023-04-26T19:39:00.772Z,56.04
2023-04-26T19:41:25.056Z,56.76
2023-04-26T19:43:48.624Z,56.38
2023-04-26T19:46:13.629Z,56.12
2023-04-26T19:48:37.174Z,56.46
2023-04-26T19:51:02.144Z,56.91
2023-04-26T19:53:25.660Z,57.03
2023-04-26T19:55:49.333Z,57.09
2023-04-26T19:58:12.956Z,57.36
2023-04-26T20:00:36.841Z,57.89
2023-04-26T20:03:00.543Z,57.93
2023-04-26T20:05:24.219Z,58.20
2023-04-26T20:07:49.174Z,58.81
2023-04-26T20:10:13.185Z,58.74
2023-04-26T20:12:37.035Z,58.56
2023-04-26T20:15:00.964Z,59.37
2023-04-26T20:17:24.498Z,59.96
2023-04-26T20:19:48.993Z,59.28
2023-04-26T20:22:12.512Z,60.63
2023-04-26T20:24:37.458Z,59.53
2023-04-26T20:27:01.961Z,59.95
2023-04-26T20:29:25.779Z,59.77
2023-04-26T20:31:49.496Z,59.82
2023-04-26T20:34:13.249Z,60.46
2023-04-26T20:36:36.793Z,60.19
2023-04-26T20:39:00.719Z,60.19
2023-04-26T20:41:27.029Z,60.48
2023-04-26T20:43:52.825Z,60.57
2023-04-26T20:46:16.390Z,61.55
2023-04-26T20:48:40.006Z,60.30
2023-04-26T20:51:03.615Z,62.55
2023-04-26T20:53:27.287Z,61.70
2023-04-26T20:55:53.648Z,62.31
2023-04-26T20:58:18.651Z,62.60
2023-04-26T21:00:44.216Z,60.83
2023-04-26T21:03:08.467Z,60.61
2023-04-26T21:05:32.221Z,61.84
2023-04-26T21:07:56.486Z,61.66
2023-04-26T21:10:20.231Z,60.99
2023-04-26T21:12:43.842Z,61.44
2023-04-26T21:15:10.561Z,59.64
2023-04-26T21:17:35.275Z,60.04
2023-04-26T21:19:58.871Z,60.67
2023-04-26T21:22:22.676Z,60.92
2023-04-26T21:24:46.232Z,61.49
2023-04-26T21:27:10.008Z,60.20
2023-04-26T21:29:33.550Z,60.90
2023-04-26T21:31:58.577Z,61.48
2023-04-26T21:34:22.257Z,62.65
2023-04-26T21:36:47.104Z,62.84
2023-04-26T21:39:11.197Z,62.77
2023-04-26T21:41:35.234Z,63.62
2023-04-26T21:43:59.059Z,63.67
2023-04-26T21:46:22.816Z,64.58
2023-04-26T21:48:48.136Z,63.89
2023-04-26T21:51:11.731Z,64.32
2023-04-26T21:53:35.565Z,64.99
2023-04-26T21:55:59.847Z,63.67
2023-04-26T21:58:24.136Z,62.45
2023-04-26T22:00:48.581Z,62.93
2023-04-26T22:03:12.410Z,62.51
2023-04-26T22:05:38.345Z,61.71
2023-04-26T22:08:01.885Z,62.92
2023-04-26T22:10:25.858Z,62.57
2023-04-26T22:12:49.928Z,64.83
2023-04-26T22:15:13.593Z,63.66
2023-04-26T22:17:37.226Z,64.18
2023-04-26T22:20:01.272Z,65.38
2023-04-26T22:22:26.247Z,65.15
2023-04-26T22:24:50.499Z,63.34
2023-04-26T22:27:14.029Z,62.95
2023-04-26T22:29:38.021Z,63.75
2023-04-26T22:32:01.692Z,64.37
2023-04-26T22:34:25.395Z,63.15
2023-04-26T22:36:48.971Z,64.79
2023-04-26T22:39:14.300Z,64.03
2023-04-26T22:41:37.908Z,63.73
2023-04-26T22:44:01.584Z,63.99
2023-04-26T22:46:25.248Z,64.81
2023-04-26T22:48:49.117Z,64.81
2023-04-26T22:51:12.623Z,64.94
2023-04-26T22:53:36.238Z,65.14
2023-04-26T22:56:01.165Z,64.62
2023-04-26T22:58:24.732Z,64.57
2023-04-26T23:00:48.355Z,63.84
2023-04-26T23:03:12.143Z,63.92
2023-04-26T23:05:35.775Z,63.65
2023-04-26T23:07:59.428Z,63.36
2023-04-26T23:10:23.532Z,65.01
2023-04-26T23:12:49.171Z,65.38
2023-04-26T23:15:13.370Z,64.72
2023-04-26T23:17:37.132Z,65.70
2023-04-26T23:20:00.969Z,64.85
2023-04-26T23:22:24.568Z,65.01
2023-04-26T23:24:48.206Z,64.46
2023-04-26T23:27:11.838Z,64.97
2023-04-26T23:29:36.805Z,64.13
2023-04-26T23:32:00.437Z,64.76
2023-04-26T23:34:23.964Z,63.99
2023-04-26T23:36:47.602Z,65.06
2023-04-26T23:39:11.492Z,64.23
2023-04-26T23:41:35.331Z,64.76
2023-04-26T23:43:58.894Z,65.23
2023-04-26T23:46:23.928Z,65.27
2023-04-26T23:48:47.502Z,64.80
2023-04-26T23:51:11.095Z,64.45
2023-04-26T23:53:34.628Z,64.95
2023-04-26T23:55:58.304Z,64.87
2023-04-26T23:58:21.986Z,64.43
